sensor_id;sensor_type;location;lat;lon;timestamp;temperature;humidity
2873;DHT22;1444;49.166;7.312;2023-02-15T00:00:53;2.30;95.20
2873;DHT22;1444;49.166;7.312;2023-02-15T00:03:21;2.30;95.20
2873;DHT22;1444;49.166;7.312;2023-02-15T00:05:48;2.30;95.20
2873;DHT22;1444;49.166;7.312;2023-02-15T00:08:16;2.30;95.30
2873;DHT22;1444;49.166;7.312;2023-02-15T00:10:42;2.20;95.50
2873;DHT22;1444;49.166;7.312;2023-02-15T00:13:09;2.20;95.70
2873;DHT22;1444;49.166;7.312;2023-02-15T00:15:36;2.20;95.70
2873;DHT22;1444;49.166;7.312;2023-02-15T00:18:03;2.20;95.90
2873;DHT22;1444;49.166;7.312;2023-02-15T00:20:29;2.20;95.80
2873;DHT22;1444;49.166;7.312;2023-02-15T00:22:56;2.10;95.90
2873;DHT22;1444;49.166;7.312;2023-02-15T00:25:24;2.10;96.00
2873;DHT22;1444;49.166;7.312;2023-02-15T00:27:51;2.00;96.00
2873;DHT22;1444;49.166;7.312;2023-02-15T00:30:18;2.00;96.20
2873;DHT22;1444;49.166;7.312;2023-02-15T00:32:47;2.00;96.30
2873;DHT22;1444;49.166;7.312;2023-02-15T00:37:40;1.80;96.50
2873;DHT22;1444;49.166;7.312;2023-02-15T00:40:08;1.80;96.60
2873;DHT22;1444;49.166;7.312;2023-02-15T00:42:36;1.80;96.70
2873;DHT22;1444;49.166;7.312;2023-02-15T00:45:04;1.70;96.90
2873;DHT22;1444;49.166;7.312;2023-02-15T00:47:30;1.70;97.20
2873;DHT22;1444;49.166;7.312;2023-02-15T00:49:57;1.70;97.30
2873;DHT22;1444;49.166;7.312;2023-02-15T00:52:24;1.80;97.40
2873;DHT22;1444;49.166;7.312;2023-02-15T00:54:50;1.90;97.50
2873;DHT22;1444;49.166;7.312;2023-02-15T00:57:17;1.90;97.30
2873;DHT22;1444;49.166;7.312;2023-02-15T00:59:45;2.00;97.40
2873;DHT22;1444;49.166;7.312;2023-02-15T01:02:12;2.10;97.30
2873;DHT22;1444;49.166;7.312;2023-02-15T01:04:39;2.10;97.10
2873;DHT22;1444;49.166;7.312;2023-02-15T01:07:06;2.20;97.30
2873;DHT22;1444;49.166;7.312;2023-02-15T01:09:32;2.30;97.20
2873;DHT22;1444;49.166;7.312;2023-02-15T01:11:59;2.40;97.00
2873;DHT22;1444;49.166;7.312;2023-02-15T01:14:26;2.30;97.00
2873;DHT22;1444;49.166;7.312;2023-02-15T01:16:54;2.30;97.50
2873;DHT22;1444;49.166;7.312;2023-02-15T01:19:20;2.40;97.50
2873;DHT22;1444;49.166;7.312;2023-02-15T01:21:47;2.40;97.40
2873;DHT22;1444;49.166;7.312;2023-02-15T01:24:14;2.40;97.40
2873;DHT22;1444;49.166;7.312;2023-02-15T01:26:41;2.40;97.50
2873;DHT22;1444;49.166;7.312;2023-02-15T01:29:07;2.50;97.50
2873;DHT22;1444;49.166;7.312;2023-02-15T01:31:34;2.50;97.40
2873;DHT22;1444;49.166;7.312;2023-02-15T01:34:02;2.60;97.40
2873;DHT22;1444;49.166;7.312;2023-02-15T01:36:29;2.50;97.40
2873;DHT22;1444;49.166;7.312;2023-02-15T01:38:57;2.50;97.40
2873;DHT22;1444;49.166;7.312;2023-02-15T01:41:23;2.40;97.50
2873;DHT22;1444;49.166;7.312;2023-02-15T01:43:53;2.50;97.70
2873;DHT22;1444;49.166;7.312;2023-02-15T01:46:23;2.50;97.70
2873;DHT22;1444;49.166;7.312;2023-02-15T01:48:53;2.50;97.60
2873;DHT22;1444;49.166;7.312;2023-02-15T01:51:24;2.50;97.70
2873;DHT22;1444;49.166;7.312;2023-02-15T01:53:57;2.50;97.70
2873;DHT22;1444;49.166;7.312;2023-02-15T01:56:28;2.30;98.00
2873;DHT22;1444;49.166;7.312;2023-02-15T01:58:58;2.30;98.30
2873;DHT22;1444;49.166;7.312;2023-02-15T02:01:27;2.40;98.30
2873;DHT22;1444;49.166;7.312;2023-02-15T02:04:00;2.40;98.30
2873;DHT22;1444;49.166;7.312;2023-02-15T02:06:29;2.50;98.20
2873;DHT22;1444;49.166;7.312;2023-02-15T02:08:57;2.60;98.00
2873;DHT22;1444;49.166;7.312;2023-02-15T02:11:24;2.70;97.90
2873;DHT22;1444;49.166;7.312;2023-02-15T02:13:51;2.70;97.80
2873;DHT22;1444;49.166;7.312;2023-02-15T02:16:23;2.60;97.70
2873;DHT22;1444;49.166;7.312;2023-02-15T02:19:04;2.50;98.00
2873;DHT22;1444;49.166;7.312;2023-02-15T02:24:55;2.40;98.30
2873;DHT22;1444;49.166;7.312;2023-02-15T02:27:31;2.20;98.30
2873;DHT22;1444;49.166;7.312;2023-02-15T02:30:20;2.20;98.60
2873;DHT22;1444;49.166;7.312;2023-02-15T02:35:48;2.20;98.90
2873;DHT22;1444;49.166;7.312;2023-02-15T02:38:26;2.40;98.70
2873;DHT22;1444;49.166;7.312;2023-02-15T02:40:58;2.30;98.30
2873;DHT22;1444;49.166;7.312;2023-02-15T02:43:32;2.40;98.30
2873;DHT22;1444;49.166;7.312;2023-02-15T02:46:05;2.50;98.40
2873;DHT22;1444;49.166;7.312;2023-02-15T02:51:02;2.40;98.40
2873;DHT22;1444;49.166;7.312;2023-02-15T02:53:30;2.30;98.20
2873;DHT22;1444;49.166;7.312;2023-02-15T02:55:59;2.30;98.60
2873;DHT22;1444;49.166;7.312;2023-02-15T02:58:32;2.30;98.50
2873;DHT22;1444;49.166;7.312;2023-02-15T03:01:05;2.30;98.40
2873;DHT22;1444;49.166;7.312;2023-02-15T03:03:37;2.30;98.30
2873;DHT22;1444;49.166;7.312;2023-02-15T03:06:06;2.20;98.20
2873;DHT22;1444;49.166;7.312;2023-02-15T03:08:38;2.30;98.40
2873;DHT22;1444;49.166;7.312;2023-02-15T03:11:06;2.30;98.30
2873;DHT22;1444;49.166;7.312;2023-02-15T03:13:35;2.20;98.30
2873;DHT22;1444;49.166;7.312;2023-02-15T03:16:04;2.20;98.40
2873;DHT22;1444;49.166;7.312;2023-02-15T03:18:53;2.30;98.50
2873;DHT22;1444;49.166;7.312;2023-02-15T03:21:31;2.30;98.30
2873;DHT22;1444;49.166;7.312;2023-02-15T03:26:29;2.70;98.90
2873;DHT22;1444;49.166;7.312;2023-02-15T03:28:58;2.20;98.50
2873;DHT22;1444;49.166;7.312;2023-02-15T03:31:28;2.20;98.60
2873;DHT22;1444;49.166;7.312;2023-02-15T03:34:02;2.10;98.50
2873;DHT22;1444;49.166;7.312;2023-02-15T03:36:34;2.40;98.70
2873;DHT22;1444;49.166;7.312;2023-02-15T03:39:10;2.20;99.00
2873;DHT22;1444;49.166;7.312;2023-02-15T03:41:44;2.10;98.60
2873;DHT22;1444;49.166;7.312;2023-02-15T03:44:14;2.20;98.80
2873;DHT22;1444;49.166;7.312;2023-02-15T03:46:46;2.20;98.70
2873;DHT22;1444;49.166;7.312;2023-02-15T03:49:20;2.30;98.90
2873;DHT22;1444;49.166;7.312;2023-02-15T03:51:50;2.30;98.60
2873;DHT22;1444;49.166;7.312;2023-02-15T03:54:19;2.30;98.40
2873;DHT22;1444;49.166;7.312;2023-02-15T03:57:02;2.30;98.50
2873;DHT22;1444;49.166;7.312;2023-02-15T03:59:46;2.30;98.50
2873;DHT22;1444;49.166;7.312;2023-02-15T04:02:37;2.30;98.40
2873;DHT22;1444;49.166;7.312;2023-02-15T04:05:06;2.40;98.30
2873;DHT22;1444;49.166;7.312;2023-02-15T04:07:33;2.40;98.10
2873;DHT22;1444;49.166;7.312;2023-02-15T04:09:59;2.30;98.20
2873;DHT22;1444;49.166;7.312;2023-02-15T04:12:44;2.40;98.40
2873;DHT22;1444;49.166;7.312;2023-02-15T04:15:12;2.30;98.10
2873;DHT22;1444;49.166;7.312;2023-02-15T04:17:56;2.00;98.80
2873;DHT22;1444;49.166;7.312;2023-02-15T04:20:24;2.00;99.40
2873;DHT22;1444;49.166;7.312;2023-02-15T04:23:08;2.10;98.90
2873;DHT22;1444;49.166;7.312;2023-02-15T04:25:53;2.10;98.50
2873;DHT22;1444;49.166;7.312;2023-02-15T04:30:46;2.20;98.90
2873;DHT22;1444;49.166;7.312;2023-02-15T04:33:13;2.30;98.80
2873;DHT22;1444;49.166;7.312;2023-02-15T04:35:43;2.30;98.40
2873;DHT22;1444;49.166;7.312;2023-02-15T04:38:11;2.30;98.40
2873;DHT22;1444;49.166;7.312;2023-02-15T04:40:37;2.20;98.50
2873;DHT22;1444;49.166;7.312;2023-02-15T04:43:04;2.30;98.60
2873;DHT22;1444;49.166;7.312;2023-02-15T04:45:31;2.30;98.30
2873;DHT22;1444;49.166;7.312;2023-02-15T04:47:57;2.30;98.30
2873;DHT22;1444;49.166;7.312;2023-02-15T04:50:24;2.30;98.40
2873;DHT22;1444;49.166;7.312;2023-02-15T04:52:52;2.30;98.40
2873;DHT22;1444;49.166;7.312;2023-02-15T04:55:18;2.30;98.30
2873;DHT22;1444;49.166;7.312;2023-02-15T04:57:45;2.30;98.30
2873;DHT22;1444;49.166;7.312;2023-02-15T05:00:13;2.40;98.40
2873;DHT22;1444;49.166;7.312;2023-02-15T05:02:39;2.40;98.30
2873;DHT22;1444;49.166;7.312;2023-02-15T05:05:06;2.40;98.20
2873;DHT22;1444;49.166;7.312;2023-02-15T05:07:34;2.50;98.30
2873;DHT22;1444;49.166;7.312;2023-02-15T05:10:03;2.50;98.00
2873;DHT22;1444;49.166;7.312;2023-02-15T05:12:30;2.40;98.20
2873;DHT22;1444;49.166;7.312;2023-02-15T05:14:56;2.50;98.30
2873;DHT22;1444;49.166;7.312;2023-02-15T05:17:23;2.60;98.30
2873;DHT22;1444;49.166;7.312;2023-02-15T05:19:50;2.60;98.00
2873;DHT22;1444;49.166;7.312;2023-02-15T05:22:16;2.70;97.90
2873;DHT22;1444;49.166;7.312;2023-02-15T05:24:43;2.60;97.80
2873;DHT22;1444;49.166;7.312;2023-02-15T05:27:28;2.60;97.90
2873;DHT22;1444;49.166;7.312;2023-02-15T05:30:13;2.40;98.10
2873;DHT22;1444;49.166;7.312;2023-02-15T05:32:40;2.40;98.20
2873;DHT22;1444;49.166;7.312;2023-02-15T05:35:07;2.50;98.40
2873;DHT22;1444;49.166;7.312;2023-02-15T05:37:34;2.50;98.20
2873;DHT22;1444;49.166;7.312;2023-02-15T05:40:00;2.60;98.20
2873;DHT22;1444;49.166;7.312;2023-02-15T05:42:28;2.60;98.30
2873;DHT22;1444;49.166;7.312;2023-02-15T05:44:55;2.70;98.30
2873;DHT22;1444;49.166;7.312;2023-02-15T05:47:22;2.70;97.90
2873;DHT22;1444;49.166;7.312;2023-02-15T05:49:48;2.60;98.00
2873;DHT22;1444;49.166;7.312;2023-02-15T05:52:15;2.60;98.00
2873;DHT22;1444;49.166;7.312;2023-02-15T05:54:42;2.60;98.30
2873;DHT22;1444;49.166;7.312;2023-02-15T05:57:08;2.60;98.10
2873;DHT22;1444;49.166;7.312;2023-02-15T05:59:36;2.60;98.00
2873;DHT22;1444;49.166;7.312;2023-02-15T06:02:03;2.60;98.50
2873;DHT22;1444;49.166;7.312;2023-02-15T06:04:31;2.60;98.20
2873;DHT22;1444;49.166;7.312;2023-02-15T06:06:58;2.50;98.20
2873;DHT22;1444;49.166;7.312;2023-02-15T06:09:25;2.50;98.50
2873;DHT22;1444;49.166;7.312;2023-02-15T06:11:51;2.50;98.50
2873;DHT22;1444;49.166;7.312;2023-02-15T06:14:18;2.60;98.60
2873;DHT22;1444;49.166;7.312;2023-02-15T06:16:46;2.50;98.40
2873;DHT22;1444;49.166;7.312;2023-02-15T06:19:13;2.50;98.50
2873;DHT22;1444;49.166;7.312;2023-02-15T06:21:39;2.60;98.60
2873;DHT22;1444;49.166;7.312;2023-02-15T06:24:08;2.50;98.60
2873;DHT22;1444;49.166;7.312;2023-02-15T06:26:34;2.60;98.50
2873;DHT22;1444;49.166;7.312;2023-02-15T06:29:01;2.70;98.60
2873;DHT22;1444;49.166;7.312;2023-02-15T06:31:28;2.40;98.40
2873;DHT22;1444;49.166;7.312;2023-02-15T06:33:56;2.30;98.70
2873;DHT22;1444;49.166;7.312;2023-02-15T06:36:26;2.00;99.10
2873;DHT22;1444;49.166;7.312;2023-02-15T06:38:53;2.10;99.30
2873;DHT22;1444;49.166;7.312;2023-02-15T06:41:19;2.10;99.00
2873;DHT22;1444;49.166;7.312;2023-02-15T06:46:13;2.20;98.70
2873;DHT22;1444;49.166;7.312;2023-02-15T06:48:40;2.30;99.10
2873;DHT22;1444;49.166;7.312;2023-02-15T06:51:10;2.30;98.80
2873;DHT22;1444;49.166;7.312;2023-02-15T06:53:37;2.30;98.80
2873;DHT22;1444;49.166;7.312;2023-02-15T06:56:07;2.30;98.80
2873;DHT22;1444;49.166;7.312;2023-02-15T06:58:34;2.20;98.70
2873;DHT22;1444;49.166;7.312;2023-02-15T07:01:03;2.30;99.20
2873;DHT22;1444;49.166;7.312;2023-02-15T07:03:30;2.20;98.90
2873;DHT22;1444;49.166;7.312;2023-02-15T07:05:58;2.20;98.80
2873;DHT22;1444;49.166;7.312;2023-02-15T07:08:27;2.20;99.10
2873;DHT22;1444;49.166;7.312;2023-02-15T07:10:55;2.30;99.20
2873;DHT22;1444;49.166;7.312;2023-02-15T07:13:42;2.40;99.10
2873;DHT22;1444;49.166;7.312;2023-02-15T07:16:08;2.50;99.10
2873;DHT22;1444;49.166;7.312;2023-02-15T07:18:35;2.60;98.80
2873;DHT22;1444;49.166;7.312;2023-02-15T07:21:02;2.70;98.60
2873;DHT22;1444;49.166;7.312;2023-02-15T07:23:30;2.60;98.50
2873;DHT22;1444;49.166;7.312;2023-02-15T07:25:57;2.50;98.60
2873;DHT22;1444;49.166;7.312;2023-02-15T07:28:24;2.50;98.80
2873;DHT22;1444;49.166;7.312;2023-02-15T07:30:51;2.60;98.80
2873;DHT22;1444;49.166;7.312;2023-02-15T07:33:18;2.50;98.50
2873;DHT22;1444;49.166;7.312;2023-02-15T07:35:54;2.50;98.70
2873;DHT22;1444;49.166;7.312;2023-02-15T07:40:51;2.70;98.80
2873;DHT22;1444;49.166;7.312;2023-02-15T07:43:18;2.50;98.40
2873;DHT22;1444;49.166;7.312;2023-02-15T07:45:44;2.30;98.80
2873;DHT22;1444;49.166;7.312;2023-02-15T07:48:11;2.40;99.20
2873;DHT22;1444;49.166;7.312;2023-02-15T07:50:38;2.40;99.30
2873;DHT22;1444;49.166;7.312;2023-02-15T07:55:31;2.50;99.40
2873;DHT22;1444;49.166;7.312;2023-02-15T07:57:59;2.60;99.40
2873;DHT22;1444;49.166;7.312;2023-02-15T08:00:26;2.70;99.10
2873;DHT22;1444;49.166;7.312;2023-02-15T08:02:55;2.20;98.50
2873;DHT22;1444;49.166;7.312;2023-02-15T08:05:41;2.50;99.20
2873;DHT22;1444;49.166;7.312;2023-02-15T08:08:09;2.50;99.30
2873;DHT22;1444;49.166;7.312;2023-02-15T08:10:58;2.50;99.60
2873;DHT22;1444;49.166;7.312;2023-02-15T08:13:44;4.30;99.90
2873;DHT22;1444;49.166;7.312;2023-02-15T08:16:22;2.50;99.30
2873;DHT22;1444;49.166;7.312;2023-02-15T08:18:48;2.50;99.90
2873;DHT22;1444;49.166;7.312;2023-02-15T08:21:15;2.70;99.90
2873;DHT22;1444;49.166;7.312;2023-02-15T08:23:42;2.70;99.20
2873;DHT22;1444;49.166;7.312;2023-02-15T08:26:08;2.50;99.40
2873;DHT22;1444;49.166;7.312;2023-02-15T08:28:35;2.40;99.90
2873;DHT22;1444;49.166;7.312;2023-02-15T08:31:07;2.30;99.80
2873;DHT22;1444;49.166;7.312;2023-02-15T08:36:05;2.40;99.90
2873;DHT22;1444;49.166;7.312;2023-02-15T08:38:33;2.50;99.90
2873;DHT22;1444;49.166;7.312;2023-02-15T08:41:09;2.70;99.90
2873;DHT22;1444;49.166;7.312;2023-02-15T08:43:36;2.80;99.80
2873;DHT22;1444;49.166;7.312;2023-02-15T08:46:03;2.90;99.80
2873;DHT22;1444;49.166;7.312;2023-02-15T08:48:32;3.00;99.90
2873;DHT22;1444;49.166;7.312;2023-02-15T08:50:58;3.00;99.70
2873;DHT22;1444;49.166;7.312;2023-02-15T08:53:25;3.00;99.20
2873;DHT22;1444;49.166;7.312;2023-02-15T08:55:55;2.80;99.60
2873;DHT22;1444;49.166;7.312;2023-02-15T08:58:22;2.60;99.90
2873;DHT22;1444;49.166;7.312;2023-02-15T09:00:49;2.60;99.90
2873;DHT22;1444;49.166;7.312;2023-02-15T09:03:16;2.70;99.90
2873;DHT22;1444;49.166;7.312;2023-02-15T09:05:44;2.70;99.90
2873;DHT22;1444;49.166;7.312;2023-02-15T09:08:10;2.80;99.90
2873;DHT22;1444;49.166;7.312;2023-02-15T09:10:37;3.00;99.90
2873;DHT22;1444;49.166;7.312;2023-02-15T09:13:04;3.10;99.70
2873;DHT22;1444;49.166;7.312;2023-02-15T09:15:30;3.00;99.60
2873;DHT22;1444;49.166;7.312;2023-02-15T09:17:57;2.90;99.80
2873;DHT22;1444;49.166;7.312;2023-02-15T09:20:26;2.90;99.90
2873;DHT22;1444;49.166;7.312;2023-02-15T09:22:54;3.10;99.90
2873;DHT22;1444;49.166;7.312;2023-02-15T09:25:21;3.30;99.90
2873;DHT22;1444;49.166;7.312;2023-02-15T09:27:48;3.50;99.90
2873;DHT22;1444;49.166;7.312;2023-02-15T09:30:15;3.70;99.90
2873;DHT22;1444;49.166;7.312;2023-02-15T09:32:41;3.80;99.90
2873;DHT22;1444;49.166;7.312;2023-02-15T09:35:08;4.10;99.90
2873;DHT22;1444;49.166;7.312;2023-02-15T09:37:34;4.20;99.90
2873;DHT22;1444;49.166;7.312;2023-02-15T09:40:03;4.50;99.80
2873;DHT22;1444;49.166;7.312;2023-02-15T09:42:47;4.70;99.50
2873;DHT22;1444;49.166;7.312;2023-02-15T09:45:34;4.80;98.80
2873;DHT22;1444;49.166;7.312;2023-02-15T09:48:28;4.80;98.60
2873;DHT22;1444;49.166;7.312;2023-02-15T09:51:18;4.60;98.40
2873;DHT22;1444;49.166;7.312;2023-02-15T09:54:03;4.70;98.80
2873;DHT22;1444;49.166;7.312;2023-02-15T09:56:40;4.80;98.90
2873;DHT22;1444;49.166;7.312;2023-02-15T09:59:14;5.10;99.00
2873;DHT22;1444;49.166;7.312;2023-02-15T10:01:54;5.20;98.70
2873;DHT22;1444;49.166;7.312;2023-02-15T10:04:47;4.60;98.30
2873;DHT22;1444;49.166;7.312;2023-02-15T10:07:27;5.50;98.40
2873;DHT22;1444;49.166;7.312;2023-02-15T10:10:07;5.70;98.70
2873;DHT22;1444;49.166;7.312;2023-02-15T10:12:49;5.90;98.60
2873;DHT22;1444;49.166;7.312;2023-02-15T10:15:31;6.00;98.30
2873;DHT22;1444;49.166;7.312;2023-02-15T10:18:20;5.90;97.40
2873;DHT22;1444;49.166;7.312;2023-02-15T10:20:54;6.00;98.00
2873;DHT22;1444;49.166;7.312;2023-02-15T10:23:34;6.30;99.10
2873;DHT22;1444;49.166;7.312;2023-02-15T10:26:08;6.60;98.70
2873;DHT22;1444;49.166;7.312;2023-02-15T10:28:45;7.00;98.50
2873;DHT22;1444;49.166;7.312;2023-02-15T10:31:22;7.20;98.10
2873;DHT22;1444;49.166;7.312;2023-02-15T10:33:57;7.30;97.40
2873;DHT22;1444;49.166;7.312;2023-02-15T10:36:35;7.40;97.90
2873;DHT22;1444;49.166;7.312;2023-02-15T10:39:10;7.80;98.10
2873;DHT22;1444;49.166;7.312;2023-02-15T10:41:48;8.00;97.60
2873;DHT22;1444;49.166;7.312;2023-02-15T10:44:32;8.30;97.30
2873;DHT22;1444;49.166;7.312;2023-02-15T10:47:25;8.50;97.40
2873;DHT22;1444;49.166;7.312;2023-02-15T10:50:07;8.80;97.40
2873;DHT22;1444;49.166;7.312;2023-02-15T10:52:46;8.90;96.40
2873;DHT22;1444;49.166;7.312;2023-02-15T10:55:26;9.10;96.80
2873;DHT22;1444;49.166;7.312;2023-02-15T11:00:36;9.30;96.80
2873;DHT22;1444;49.166;7.312;2023-02-15T11:03:25;9.40;96.10
2873;DHT22;1444;49.166;7.312;2023-02-15T11:06:01;9.50;96.10
2873;DHT22;1444;49.166;7.312;2023-02-15T11:08:32;9.70;96.30
2873;DHT22;1444;49.166;7.312;2023-02-15T11:11:03;9.80;96.50
2873;DHT22;1444;49.166;7.312;2023-02-15T11:13:34;9.90;96.10
2873;DHT22;1444;49.166;7.312;2023-02-15T11:16:06;10.20;96.00
2873;DHT22;1444;49.166;7.312;2023-02-15T11:18:36;10.40;95.70
2873;DHT22;1444;49.166;7.312;2023-02-15T11:21:07;10.60;95.30
2873;DHT22;1444;49.166;7.312;2023-02-15T11:23:37;10.70;95.40
2873;DHT22;1444;49.166;7.312;2023-02-15T11:26:13;10.80;95.00
2873;DHT22;1444;49.166;7.312;2023-02-15T11:28:45;10.80;94.80
2873;DHT22;1444;49.166;7.312;2023-02-15T11:31:17;10.70;94.90
2873;DHT22;1444;49.166;7.312;2023-02-15T11:33:46;10.70;94.70
2873;DHT22;1444;49.166;7.312;2023-02-15T11:36:16;10.90;95.90
2873;DHT22;1444;49.166;7.312;2023-02-15T11:38:46;11.00;95.80
2873;DHT22;1444;49.166;7.312;2023-02-15T11:41:16;11.30;95.90
2873;DHT22;1444;49.166;7.312;2023-02-15T11:43:49;11.60;95.30
2873;DHT22;1444;49.166;7.312;2023-02-15T11:46:19;11.80;94.80
2873;DHT22;1444;49.166;7.312;2023-02-15T11:48:47;11.90;94.60
2873;DHT22;1444;49.166;7.312;2023-02-15T11:51:15;11.80;94.10
2873;DHT22;1444;49.166;7.312;2023-02-15T11:53:43;11.90;95.10
2873;DHT22;1444;49.166;7.312;2023-02-15T11:56:14;12.10;94.80
2873;DHT22;1444;49.166;7.312;2023-02-15T11:58:45;12.20;94.90
2873;DHT22;1444;49.166;7.312;2023-02-15T12:01:16;12.30;95.10
2873;DHT22;1444;49.166;7.312;2023-02-15T12:03:48;12.70;94.90
2873;DHT22;1444;49.166;7.312;2023-02-15T12:06:21;13.00;94.90
2873;DHT22;1444;49.166;7.312;2023-02-15T12:08:54;13.20;94.30
2873;DHT22;1444;49.166;7.312;2023-02-15T12:11:27;13.40;94.30
2873;DHT22;1444;49.166;7.312;2023-02-15T12:13:57;13.60;93.90
2873;DHT22;1444;49.166;7.312;2023-02-15T12:16:25;13.80;94.10
2873;DHT22;1444;49.166;7.312;2023-02-15T12:18:55;14.10;93.80
2873;DHT22;1444;49.166;7.312;2023-02-15T12:21:29;14.20;93.60
2873;DHT22;1444;49.166;7.312;2023-02-15T12:26:26;14.30;93.20
2873;DHT22;1444;49.166;7.312;2023-02-15T12:28:54;14.40;93.60
2873;DHT22;1444;49.166;7.312;2023-02-15T12:31:27;14.60;93.10
2873;DHT22;1444;49.166;7.312;2023-02-15T12:34:00;14.80;93.40
2873;DHT22;1444;49.166;7.312;2023-02-15T12:36:31;15.00;93.90
2873;DHT22;1444;49.166;7.312;2023-02-15T12:39:16;15.30;93.50
2873;DHT22;1444;49.166;7.312;2023-02-15T12:41:45;15.50;93.30
2873;DHT22;1444;49.166;7.312;2023-02-15T12:44:17;15.90;91.90
2873;DHT22;1444;49.166;7.312;2023-02-15T12:46:56;15.80;91.40
2873;DHT22;1444;49.166;7.312;2023-02-15T12:49:25;15.80;90.50
2873;DHT22;1444;49.166;7.312;2023-02-15T12:51:53;15.80;90.70
2873;DHT22;1444;49.166;7.312;2023-02-15T12:54:33;15.90;90.90
2873;DHT22;1444;49.166;7.312;2023-02-15T12:57:14;16.10;90.50
2873;DHT22;1444;49.166;7.312;2023-02-15T12:59:48;16.40;91.00
2873;DHT22;1444;49.166;7.312;2023-02-15T13:02:27;16.60;91.20
2873;DHT22;1444;49.166;7.312;2023-02-15T13:05:03;16.80;90.50
2873;DHT22;1444;49.166;7.312;2023-02-15T13:07:30;16.80;88.20
2873;DHT22;1444;49.166;7.312;2023-02-15T13:09:58;16.90;88.90
2873;DHT22;1444;49.166;7.312;2023-02-15T13:12:27;17.10;89.30
2873;DHT22;1444;49.166;7.312;2023-02-15T13:14:56;17.10;87.90
2873;DHT22;1444;49.166;7.312;2023-02-15T13:17:26;17.00;87.90
2873;DHT22;1444;49.166;7.312;2023-02-15T13:19:57;17.20;85.90
2873;DHT22;1444;49.166;7.312;2023-02-15T13:22:28;17.10;84.70
2873;DHT22;1444;49.166;7.312;2023-02-15T13:25:01;17.30;86.30
2873;DHT22;1444;49.166;7.312;2023-02-15T13:27:34;17.30;84.30
2873;DHT22;1444;49.166;7.312;2023-02-15T13:30:04;17.20;81.30
2873;DHT22;1444;49.166;7.312;2023-02-15T13:32:38;17.20;83.40
2873;DHT22;1444;49.166;7.312;2023-02-15T13:35:15;17.10;83.40
2873;DHT22;1444;49.166;7.312;2023-02-15T13:40:36;17.30;82.70
2873;DHT22;1444;49.166;7.312;2023-02-15T13:43:11;17.20;80.80
2873;DHT22;1444;49.166;7.312;2023-02-15T13:45:49;16.90;80.50
2873;DHT22;1444;49.166;7.312;2023-02-15T13:48:26;16.90;81.00
2873;DHT22;1444;49.166;7.312;2023-02-15T13:51:07;17.00;81.30
2873;DHT22;1444;49.166;7.312;2023-02-15T13:53:44;17.10;81.00
2873;DHT22;1444;49.166;7.312;2023-02-15T13:56:17;17.00;78.90
2873;DHT22;1444;49.166;7.312;2023-02-15T14:01:45;16.90;80.90
2873;DHT22;1444;49.166;7.312;2023-02-15T14:04:49;17.10;81.30
2873;DHT22;1444;49.166;7.312;2023-02-15T14:07:40;17.00;78.50
2873;DHT22;1444;49.166;7.312;2023-02-15T14:10:37;16.90;78.40
2873;DHT22;1444;49.166;7.312;2023-02-15T14:13:25;16.80;76.50
2873;DHT22;1444;49.166;7.312;2023-02-15T14:16:00;16.90;77.60
2873;DHT22;1444;49.166;7.312;2023-02-15T14:18:35;17.00;78.00
2873;DHT22;1444;49.166;7.312;2023-02-15T14:21:09;17.00;77.00
2873;DHT22;1444;49.166;7.312;2023-02-15T14:23:44;17.20;79.50
2873;DHT22;1444;49.166;7.312;2023-02-15T14:26:21;17.20;78.10
2873;DHT22;1444;49.166;7.312;2023-02-15T14:28:58;17.20;78.90
2873;DHT22;1444;49.166;7.312;2023-02-15T14:31:33;17.30;78.30
2873;DHT22;1444;49.166;7.312;2023-02-15T14:34:01;17.40;78.20
2873;DHT22;1444;49.166;7.312;2023-02-15T14:36:30;17.50;78.60
2873;DHT22;1444;49.166;7.312;2023-02-15T14:39:06;17.60;80.40
2873;DHT22;1444;49.166;7.312;2023-02-15T14:42:04;17.70;78.40
2873;DHT22;1444;49.166;7.312;2023-02-15T14:44:32;17.80;79.30
2873;DHT22;1444;49.166;7.312;2023-02-15T14:47:06;17.90;76.80
2873;DHT22;1444;49.166;7.312;2023-02-15T14:49:37;18.00;75.70
2873;DHT22;1444;49.166;7.312;2023-02-15T14:52:05;18.10;77.30
2873;DHT22;1444;49.166;7.312;2023-02-15T14:54:57;18.10;76.90
2873;DHT22;1444;49.166;7.312;2023-02-15T14:57:30;17.90;75.40
2873;DHT22;1444;49.166;7.312;2023-02-15T14:59:58;17.90;75.20
2873;DHT22;1444;49.166;7.312;2023-02-15T15:02:39;17.70;75.70
2873;DHT22;1444;49.166;7.312;2023-02-15T15:05:09;17.40;75.50
2873;DHT22;1444;49.166;7.312;2023-02-15T15:07:41;17.00;74.20
2873;DHT22;1444;49.166;7.312;2023-02-15T15:10:38;16.90;76.90
2873;DHT22;1444;49.166;7.312;2023-02-15T15:13:38;16.90;78.30
2873;DHT22;1444;49.166;7.312;2023-02-15T15:19:10;17.00;81.20
2873;DHT22;1444;49.166;7.312;2023-02-15T15:22:02;16.90;79.80
2873;DHT22;1444;49.166;7.312;2023-02-15T15:24:49;16.80;78.50
2873;DHT22;1444;49.166;7.312;2023-02-15T15:30:49;16.60;78.60
2873;DHT22;1444;49.166;7.312;2023-02-15T15:33:46;16.60;79.40
2873;DHT22;1444;49.166;7.312;2023-02-15T15:36:48;16.60;78.00
2873;DHT22;1444;49.166;7.312;2023-02-15T15:42:15;16.50;77.30
2873;DHT22;1444;49.166;7.312;2023-02-15T15:45:08;16.40;78.40
2873;DHT22;1444;49.166;7.312;2023-02-15T15:47:53;16.20;77.70
2873;DHT22;1444;49.166;7.312;2023-02-15T15:50:23;16.10;79.00
2873;DHT22;1444;49.166;7.312;2023-02-15T15:52:53;15.80;79.00
2873;DHT22;1444;49.166;7.312;2023-02-15T15:55:23;15.60;80.60
2873;DHT22;1444;49.166;7.312;2023-02-15T15:57:52;15.30;81.70
2873;DHT22;1444;49.166;7.312;2023-02-15T16:00:32;14.90;82.40
2873;DHT22;1444;49.166;7.312;2023-02-15T16:03:01;14.50;83.00
2873;DHT22;1444;49.166;7.312;2023-02-15T16:05:35;14.30;83.50
2873;DHT22;1444;49.166;7.312;2023-02-15T16:08:02;14.10;81.70
2873;DHT22;1444;49.166;7.312;2023-02-15T16:10:30;14.00;83.40
2873;DHT22;1444;49.166;7.312;2023-02-15T16:12:58;14.10;84.40
2873;DHT22;1444;49.166;7.312;2023-02-15T16:15:36;14.00;84.10
2873;DHT22;1444;49.166;7.312;2023-02-15T16:18:05;13.90;83.50
2873;DHT22;1444;49.166;7.312;2023-02-15T16:20:33;13.80;83.70
2873;DHT22;1444;49.166;7.312;2023-02-15T16:23:20;13.70;84.00
2873;DHT22;1444;49.166;7.312;2023-02-15T16:25:55;13.60;84.00
2873;DHT22;1444;49.166;7.312;2023-02-15T16:28:25;13.60;84.90
2873;DHT22;1444;49.166;7.312;2023-02-15T16:31:07;13.50;84.70
2873;DHT22;1444;49.166;7.312;2023-02-15T16:33:40;13.40;84.20
2873;DHT22;1444;49.166;7.312;2023-02-15T16:36:11;13.40;85.50
2873;DHT22;1444;49.166;7.312;2023-02-15T16:39:07;13.30;85.00
2873;DHT22;1444;49.166;7.312;2023-02-15T16:41:34;13.20;85.00
2873;DHT22;1444;49.166;7.312;2023-02-15T16:44:06;13.20;85.40
2873;DHT22;1444;49.166;7.312;2023-02-15T16:46:38;13.00;84.10
2873;DHT22;1444;49.166;7.312;2023-02-15T16:49:15;12.70;84.30
2873;DHT22;1444;49.166;7.312;2023-02-15T16:54:15;12.40;85.20
2873;DHT22;1444;49.166;7.312;2023-02-15T16:56:43;12.30;85.80
2873;DHT22;1444;49.166;7.312;2023-02-15T16:59:19;12.00;85.10
2873;DHT22;1444;49.166;7.312;2023-02-15T17:01:46;12.00;85.60
2873;DHT22;1444;49.166;7.312;2023-02-15T17:04:28;11.80;85.70
2873;DHT22;1444;49.166;7.312;2023-02-15T17:06:59;11.50;85.90
2873;DHT22;1444;49.166;7.312;2023-02-15T17:09:26;11.20;86.30
2873;DHT22;1444;49.166;7.312;2023-02-15T17:11:53;11.00;87.30
2873;DHT22;1444;49.166;7.312;2023-02-15T17:14:20;10.70;87.70
2873;DHT22;1444;49.166;7.312;2023-02-15T17:16:49;10.60;87.60
2873;DHT22;1444;49.166;7.312;2023-02-15T17:19:20;10.40;87.40
2873;DHT22;1444;49.166;7.312;2023-02-15T17:21:50;10.40;87.60
2873;DHT22;1444;49.166;7.312;2023-02-15T17:24:31;10.30;88.00
2873;DHT22;1444;49.166;7.312;2023-02-15T17:27:01;10.20;88.30
2873;DHT22;1444;49.166;7.312;2023-02-15T17:32:01;9.90;88.20
2873;DHT22;1444;49.166;7.312;2023-02-15T17:34:45;9.50;87.80